Time;durP1;ratioP1;P1;durP2;ratioP2;P2;SDS_P1;SDS_P2;PMS_P1;PMS_P2;Temp;Humidity;BMP_temperature;BMP_pressure;BME280_temperature;BME280_humidity;BME280_pressure;Samples;Min_cycle;Max_cycle;Signal;HPM_P1;HPM_P2
2022/11/23 00:00:41;;;;;;;55.30;28.70;;;;;;;-0.76;98.34;98823.17;1751561;79;21560;-81
2022/11/23 00:03:13;;;;;;;58.78;29.40;;;;;;;-0.77;98.24;98830.46;1749250;79;21688;-81
2022/11/23 00:05:40;;;;;;;53.17;29.42;;;;;;;-0.77;98.27;98827.90;1776801;79;21021;-81
2022/11/23 00:08:07;;;;;;;58.53;31.07;;;;;;;-0.76;98.29;98827.02;1752930;80;21036;-81
2022/11/23 00:10:33;;;;;;;63.10;32.88;;;;;;;-0.75;98.24;98831.29;1753176;80;21184;-81
2022/11/23 00:13:00;;;;;;;56.27;30.07;;;;;;;-0.74;98.26;98835.53;1772297;79;21644;-81
2022/11/23 00:15:27;;;;;;;56.37;31.70;;;;;;;-0.74;98.35;98832.97;1761129;79;21249;-81
2022/11/23 00:17:54;;;;;;;60.92;31.75;;;;;;;-0.73;98.29;98834.69;1759305;80;20999;-81
2022/11/23 00:20:20;;;;;;;59.80;30.97;;;;;;;-0.71;98.29;98838.05;1764145;79;21002;-81
2022/11/23 00:22:49;;;;;;;59.60;30.37;;;;;;;-0.70;98.36;98835.91;1759414;79;21026;-81
2022/11/23 00:25:15;;;;;;;59.42;30.92;;;;;;;-0.74;98.49;98838.10;1757207;80;22061;-80
2022/11/23 00:27:42;;;;;;;47.25;23.47;;;;;;;-0.77;98.57;98835.59;1766348;79;21468;-80
2022/11/23 00:30:11;;;;;;;52.50;25.30;;;;;;;-0.80;98.78;98844.61;1762811;80;21486;-80
2022/11/23 00:32:37;;;;;;;53.50;28.87;;;;;;;-0.84;98.86;98834.01;1761505;80;21081;-80
2022/11/23 00:35:05;;;;;;;54.27;28.13;;;;;;;-0.87;99.00;98839.16;1766239;79;22344;-83
2022/11/23 00:37:32;;;;;;;;;;;;;;;-0.88;99.10;98832.34;1758274;80;22248;-82
2022/11/23 00:39:59;;;;;;;63.87;29.52;;;;;;;-0.88;99.09;98829.78;1762671;79;20111;-81
2022/11/23 00:42:25;;;;;;;60.03;29.53;;;;;;;-0.91;99.09;98824.27;1769440;79;21083;-80
2022/11/23 00:44:52;;;;;;;53.60;23.43;;;;;;;-0.93;99.18;98827.72;1759774;80;21274;-80
2022/11/23 00:47:19;;;;;;;56.88;31.10;;;;;;;-0.94;99.22;98814.51;1757967;79;21098;-80
2022/11/23 00:49:45;;;;;;;58.02;27.52;;;;;;;-0.95;99.25;98820.52;1780099;80;21079;-80
2022/11/23 00:52:12;;;;;;;57.55;28.95;;;;;;;-0.96;99.22;98826.48;1763106;79;21099;-80
2022/11/23 00:54:42;;;;;;;50.38;23.27;;;;;;;-0.93;99.15;98827.72;1763530;80;20944;-80
2022/11/23 00:57:08;;;;;;;54.67;28.20;;;;;;;-0.94;99.31;98810.22;1760278;79;21478;-80
2022/11/23 00:59:36;;;;;;;61.67;32.17;;;;;;;-0.92;99.21;98799.96;1762946;79;21087;-80
2022/11/23 01:02:02;;;;;;;62.73;33.48;;;;;;;-0.93;99.20;98813.63;1764702;79;20947;-80
2022/11/23 01:04:29;;;;;;;64.53;33.30;;;;;;;-0.91;99.24;98814.45;1783551;79;20948;-80
2022/11/23 01:06:56;;;;;;;56.42;28.60;;;;;;;-0.91;99.15;98813.17;1741488;81;21423;-80
2022/11/23 01:09:25;;;;;;;46.70;22.77;;;;;;;-0.86;99.04;98819.08;1756434;81;21479;-80
2022/11/23 01:11:54;;;;;;;64.07;30.20;;;;;;;-0.85;99.13;98808.39;1755658;81;21113;-80
2022/11/23 01:14:22;;;;;;;60.40;31.30;;;;;;;-0.88;99.01;98819.53;1760145;81;20910;-80
2022/11/23 01:16:49;;;;;;;57.83;30.17;;;;;;;-0.87;99.02;98817.37;1763157;79;20912;-80
2022/11/23 01:19:18;;;;;;;;;;;;;;;-0.85;99.03;98836.58;1762090;79;20950;-80
2022/11/23 01:21:45;;;;;;;58.63;30.27;;;;;;;-0.85;98.99;98832.30;1762908;81;20117;-81
2022/11/23 01:24:19;;;;;;;58.95;33.10;;;;;;;-0.85;98.92;98840.42;1762504;79;21621;-80
2022/11/23 01:26:50;;;;;;;55.28;28.47;;;;;;;-0.85;98.90;98846.39;1781054;79;21527;-80
2022/11/23 01:29:19;;;;;;;55.38;28.83;;;;;;;-0.82;98.83;98839.09;1754375;79;20935;-80
2022/11/23 01:31:46;;;;;;;60.63;29.65;;;;;;;-0.83;98.73;98843.37;1754370;81;20910;-80
2022/11/23 01:34:13;;;;;;;46.20;23.32;;;;;;;-0.86;98.76;98835.73;1773490;79;21376;-80
2022/11/23 01:36:41;;;;;;;60.80;28.98;;;;;;;-0.92;98.97;98835.84;1751753;79;21634;-80
2022/11/23 01:39:07;;;;;;;55.48;29.48;;;;;;;-0.96;98.99;98829.05;1756926;79;26621;-80
2022/11/23 01:41:38;;;;;;;58.43;31.10;;;;;;;-0.98;99.02;98832.06;1754885;80;20875;-80
2022/11/23 01:44:31;;;;;;;59.38;30.40;;;;;;;-0.96;99.05;98839.30;1756271;81;20980;-81
2022/11/23 01:47:05;;;;;;;59.67;29.10;;;;;;;-0.97;99.03;98832.49;1753250;79;21421;-80
2022/11/23 01:49:45;;;;;;;57.98;30.60;;;;;;;-0.97;99.00;98835.05;1751651;81;21066;-80
2022/11/23 01:52:22;;;;;;;53.50;28.75;;;;;;;-0.98;98.98;98838.47;1755219;79;20959;-80
2022/11/23 01:54:52;;;;;;;56.30;27.70;;;;;;;-1.00;99.06;98845.35;1751775;81;20869;-80
2022/11/23 01:57:30;;;;;;;51.88;27.48;;;;;;;-1.01;99.03;98837.23;1750883;81;20972;-80
2022/11/23 01:59:57;;;;;;;55.65;28.67;;;;;;;-1.01;99.10;98837.23;1753389;81;20932;-80
2022/11/23 02:02:26;;;;;;;58.35;31.17;;;;;;;-1.08;99.08;98821.56;1753279;81;21067;-80
2022/11/23 02:04:54;;;;;;;50.92;26.02;;;;;;;-1.08;99.08;98821.56;1754892;81;20927;-81
2022/11/23 02:07:22;;;;;;;49.88;26.10;;;;;;;-0.98;99.02;98830.78;1753911;81;20919;-80
2022/11/23 02:09:50;;;;;;;58.90;29.35;;;;;;;-1.01;99.05;98825.70;1751068;81;20997;-81
2022/11/23 02:12:17;;;;;;;58.08;30.48;;;;;;;-1.04;99.03;98828.31;1753231;80;21516;-81
2022/11/23 02:14:45;;;;;;;58.25;27.93;;;;;;;-1.04;99.03;98825.75;1753867;80;21012;-81
2022/11/23 02:17:12;;;;;;;52.95;29.90;;;;;;;-1.03;99.12;98823.62;1751949;81;20940;-81
2022/11/23 02:20:12;;;;;;;38.40;18.80;;;;;;;-1.04;99.15;98828.31;1756154;81;20905;-81
2022/11/23 02:23:19;;;;;;;47.35;23.70;;;;;;;-1.07;99.12;98825.80;1757719;80;20942;-80
2022/11/23 02:26:07;;;;;;;55.12;26.65;;;;;;;-1.07;99.24;98830.92;1741914;81;20916;-80
2022/11/23 02:28:44;;;;;;;54.20;25.35;;;;;;;-1.09;99.23;98823.28;1747154;80;22032;-80
2022/11/23 02:31:11;;;;;;;48.48;26.10;;;;;;;-1.10;99.31;98822.01;1750009;82;20952;-80
2022/11/23 02:33:41;;;;;;;48.57;25.80;;;;;;;-1.13;99.43;98817.33;1751682;82;20964;-81
2022/11/23 02:36:40;;;;;;;48.83;28.47;;;;;;;-1.12;99.40;98822.05;1751506;82;20971;-81
2022/11/23 02:39:27;;;;;;;53.98;28.95;;;;;;;-1.13;99.34;98817.33;1749443;82;20951;-80
2022/11/23 02:41:54;;;;;;;55.63;28.52;;;;;;;-1.13;99.47;98812.20;1748153;82;21064;-80
2022/11/23 02:44:33;;;;;;;;;;;;;;;-1.13;99.50;98817.33;1753822;81;20849;-80
2022/11/23 02:47:00;;;;;;;50.08;26.37;;;;;;;-1.11;99.54;98810.08;1749593;81;20145;-80
2022/11/23 02:49:27;;;;;;;55.15;28.30;;;;;;;-1.11;99.63;98815.20;1741601;80;20954;-80
2022/11/23 02:51:54;;;;;;;44.73;22.42;;;;;;;-1.10;99.51;98806.63;1743710;80;20949;-79
2022/11/23 02:54:21;;;;;;;59.70;31.07;;;;;;;-1.11;99.67;98807.08;1728202;82;21009;-80
2022/11/23 02:56:47;;;;;;;55.90;29.77;;;;;;;-1.09;99.62;98812.16;1722826;82;21072;-80
2022/11/23 02:59:14;;;;;;;61.70;31.55;;;;;;;-1.08;99.69;98811.31;1767424;79;20937;-80
2022/11/23 03:01:41;;;;;;;63.08;31.25;;;;;;;-1.08;99.67;98812.59;1768055;79;20956;-80
2022/11/23 03:04:09;;;;;;;58.68;31.68;;;;;;;-1.06;99.63;98822.39;1765783;80;20924;-80
2022/11/23 03:06:36;;;;;;;62.20;32.28;;;;;;;-1.05;99.71;98821.52;1765339;79;21867;-80
2022/11/23 03:09:03;;;;;;;64.67;31.93;;;;;;;-1.04;99.63;98820.63;1759491;80;21030;-81
2022/11/23 03:11:29;;;;;;;59.33;32.03;;;;;;;-1.05;99.72;98822.79;1766184;79;20958;-80
2022/11/23 03:13:56;;;;;;;68.10;33.50;;;;;;;-1.04;99.70;98820.63;1769688;79;20949;-80
2022/11/23 03:16:23;;;;;;;67.67;34.65;;;;;;;-1.04;99.80;98811.66;1767491;79;20969;-80
2022/11/23 03:18:50;;;;;;;60.83;31.70;;;;;;;-1.03;99.68;98812.09;1778788;79;21047;-80
2022/11/23 03:21:17;;;;;;;61.15;31.97;;;;;;;-1.03;99.72;98804.41;1748077;80;20908;-80
2022/11/23 03:23:44;;;;;;;65.22;35.15;;;;;;;-0.95;99.49;98807.70;1765937;79;20927;-80
2022/11/23 03:26:11;;;;;;;60.15;32.42;;;;;;;-0.96;99.46;98797.02;1775890;79;20864;-80
2022/11/23 03:28:38;;;;;;;61.93;32.83;;;;;;;-0.96;99.50;98795.73;1785850;79;20907;-80
2022/11/23 03:31:05;;;;;;;60.67;29.95;;;;;;;-0.92;99.39;98802.08;1787092;80;21250;-80
2022/11/23 03:33:32;;;;;;;69.70;32.65;;;;;;;-0.92;99.41;98800.80;1786945;78;20923;-80
2022/11/23 03:35:59;;;;;;;63.90;30.77;;;;;;;-0.93;99.46;98799.09;1786342;78;21412;-80
2022/11/23 03:38:26;;;;;;;58.35;31.25;;;;;;;-0.91;99.43;98796.52;1784622;78;21468;-80
2022/11/23 03:40:52;;;;;;;64.27;33.25;;;;;;;-0.91;99.39;98809.33;1782801;79;20927;-80
2022/11/23 03:43:20;;;;;;;57.67;30.63;;;;;;;-0.90;99.40;98790.52;1759125;79;21060;-79
2022/11/23 03:45:47;;;;;;;64.22;32.63;;;;;;;-0.92;99.36;98802.08;1761532;79;20915;-80
2022/11/23 03:48:14;;;;;;;60.83;33.15;;;;;;;-0.91;99.39;98802.92;1768375;79;21491;-80
2022/11/23 03:50:43;;;;;;;59.90;29.35;;;;;;;-0.91;99.33;98808.05;1749987;81;20924;-80
2022/11/23 03:53:10;;;;;;;57.35;31.20;;;;;;;-0.90;99.42;98803.33;1759627;79;21506;-80
2022/11/23 03:55:37;;;;;;;63.33;32.35;;;;;;;-0.91;99.44;98801.64;1752840;81;21200;-80
2022/11/23 03:58:03;;;;;;;51.03;26.47;;;;;;;-0.91;99.41;98796.52;1754121;81;20955;-80
2022/11/23 04:00:30;;;;;;;60.92;33.38;;;;;;;-0.92;99.50;98794.84;1757404;81;20962;-80
2022/11/23 04:02:57;;;;;;;65.37;33.20;;;;;;;-0.94;99.54;98809.38;1756134;81;20951;-80
2022/11/23 04:05:26;;;;;;;55.85;30.35;;;;;;;-0.91;99.54;98814.45;1751759;81;20964;-80
2022/11/23 04:07:53;;;;;;;63.00;34.90;;;;;;;-0.87;99.52;98808.84;1780562;79;21069;-80
2022/11/23 04:10:20;;;;;;;61.70;33.80;;;;;;;-0.86;99.42;98810.11;1722361;81;20875;-80
2022/11/23 04:12:51;;;;;;;59.70;30.52;;;;;;;-0.87;99.38;98813.52;1752085;80;20921;-80
2022/11/23 04:15:18;;;;;;;65.35;34.40;;;;;;;-0.86;99.37;98806.70;1785028;80;20944;-79
2022/11/23 04:17:45;;;;;;;59.35;33.35;;;;;;;-0.86;99.36;98824.65;1753749;81;21796;-80
2022/11/23 04:20:13;;;;;;;56.25;31.62;;;;;;;-0.86;99.30;98818.24;1753677;80;21054;-80
2022/11/23 04:22:39;;;;;;;;;;;;;;;-0.88;99.25;98811.84;1756300;79;21520;-80
2022/11/23 04:25:07;;;;;;;53.52;27.62;;;;;;;-0.88;99.26;98806.72;1754444;79;20106;-79
2022/11/23 04:27:33;;;;;;;;;;;;;;;-0.92;99.27;98807.21;1756195;81;20980;-80
2022/11/23 04:30:00;;;;;;;50.50;25.62;;;;;;;-0.91;99.30;98805.48;1758683;80;20086;-79
2022/11/23 04:32:27;;;;;;;54.23;30.47;;;;;;;-0.99;99.00;98785.54;1722443;81;21014;-80
2022/11/23 04:34:53;;;;;;;59.45;29.40;;;;;;;-0.99;99.00;98785.54;1755310;79;21097;-80
2022/11/23 04:37:20;;;;;;;35.33;18.53;;;;;;;-0.88;99.19;98815.69;1755939;80;20891;-79
2022/11/23 04:39:47;;;;;;;53.90;27.93;;;;;;;-0.92;99.27;98817.91;1754295;79;20940;-79
2022/11/23 04:42:13;;;;;;;52.73;29.52;;;;;;;-0.98;99.30;98808.59;1759999;81;21455;-80
2022/11/23 04:44:40;;;;;;;53.93;29.13;;;;;;;-0.99;99.31;98813.28;1753089;80;21729;-79
2022/11/23 04:47:07;;;;;;;57.70;31.40;;;;;;;-0.99;99.40;98825.25;1750991;80;21906;-79
2022/11/23 04:49:33;;;;;;;57.70;30.45;;;;;;;-0.98;99.44;98828.22;1754948;80;20930;-79
2022/11/23 04:52:01;;;;;;;53.23;31.87;;;;;;;-0.94;99.41;98829.88;1753741;81;21442;-79
2022/11/23 04:54:27;;;;;;;50.33;31.42;;;;;;;-0.94;99.42;98832.45;1754651;80;21669;-80
2022/11/23 04:56:55;;;;;;;52.25;29.23;;;;;;;-0.94;99.33;98826.04;1761614;81;21226;-80
2022/11/23 04:59:22;;;;;;;52.98;28.67;;;;;;;-0.94;99.25;98827.32;1778964;79;20907;-79
2022/11/23 05:01:51;;;;;;;54.37;30.70;;;;;;;-0.98;99.22;98825.66;1754107;80;20974;-80
2022/11/23 05:04:18;;;;;;;57.58;29.32;;;;;;;-1.02;99.23;98817.17;1756617;80;20873;-79
2022/11/23 05:06:45;;;;;;;;;;;;;;;-1.03;99.30;98824.91;1788667;78;20938;-79
2022/11/23 05:09:14;;;;;;;61.60;28.12;;;;;;;-1.08;99.30;98817.71;1748647;80;21060;-80
2022/11/23 05:11:43;;;;;;;59.20;31.07;;;;;;;-1.11;99.48;98824.17;1754754;80;20950;-80
2022/11/23 05:14:10;;;;;;;54.85;30.60;;;;;;;-1.14;99.49;98825.89;1754824;80;20881;-80
2022/11/23 05:16:37;;;;;;;59.08;31.23;;;;;;;-1.14;99.56;98823.33;1758466;80;20904;-80
2022/11/23 05:19:03;;;;;;;59.80;31.30;;;;;;;-1.14;99.54;98824.61;1758420;81;21032;-80
2022/11/23 05:21:31;;;;;;;61.55;31.60;;;;;;;-1.11;99.58;98829.30;1755573;80;21115;-80
2022/11/23 05:23:57;;;;;;;56.10;31.00;;;;;;;-1.09;99.55;98830.09;1759880;80;21460;-80
2022/11/23 05:26:24;;;;;;;58.08;28.90;;;;;;;-1.07;99.52;98830.92;1735302;80;20967;-80
2022/11/23 05:28:51;;;;;;;62.13;31.93;;;;;;;-1.10;99.51;98820.72;1724024;82;20925;-80
2022/11/23 05:31:18;;;;;;;54.00;29.80;;;;;;;-1.13;99.53;98825.02;1723556;82;20917;-79
2022/11/23 05:33:45;;;;;;;59.13;29.27;;;;;;;-1.14;99.57;98820.77;1722803;81;21073;-80
2022/11/23 05:36:16;;;;;;;60.50;31.63;;;;;;;-1.14;99.62;98819.49;1725920;82;20866;-80
2022/11/23 05:38:41;;;;;;;61.90;32.90;;;;;;;-1.14;99.63;98823.77;1724716;82;20906;-79
2022/11/23 05:41:07;;;;;;;61.77;32.65;;;;;;;-1.14;99.73;98827.62;1708766;82;20966;-80
2022/11/23 05:43:34;;;;;;;61.73;32.80;;;;;;;-1.16;99.64;98816.09;1709566;82;21052;-79
2022/11/23 05:46:01;;;;;;;56.83;29.90;;;;;;;-1.16;99.63;98826.34;1711124;82;21930;-79
2022/11/23 05:48:28;;;;;;;64.05;31.15;;;;;;;-1.16;99.60;98819.94;1713804;82;21856;-78
2022/11/23 05:50:55;;;;;;;59.60;30.23;;;;;;;-1.18;99.71;98816.55;1749225;80;20937;-79
2022/11/23 05:53:22;;;;;;;49.85;24.32;;;;;;;-1.22;99.78;98818.75;1730332;80;21027;-79
2022/11/23 05:55:48;;;;;;;58.53;30.07;;;;;;;-1.26;100.00;98817.12;1730007;80;20969;-79
2022/11/23 05:58:15;;;;;;;60.17;31.30;;;;;;;-1.27;100.00;98823.53;1724514;80;21107;-79
2022/11/23 06:00:42;;;;;;;50.88;26.33;;;;;;;-1.28;100.00;98825.25;1741378;80;21390;-79
2022/11/23 06:03:09;;;;;;;64.35;33.20;;;;;;;-1.31;100.00;98830.41;1728758;81;21515;-83
2022/11/23 06:05:36;;;;;;;58.50;30.90;;;;;;;-1.31;100.00;98835.53;1728821;81;20927;-80
2022/11/23 06:08:02;;;;;;;56.88;31.05;;;;;;;-1.26;100.00;98833.77;1732582;80;21432;-81
2022/11/23 06:10:29;;;;;;;61.92;31.48;;;;;;;-1.25;100.00;98832.88;1730601;81;21047;-80
2022/11/23 06:13:02;;;;;;;55.55;30.95;;;;;;;-1.24;99.96;98834.56;1721826;81;21057;-81
2022/11/23 06:15:29;;;;;;;56.00;29.75;;;;;;;-1.23;99.95;98835.00;1724813;82;21431;-79
2022/11/23 06:18:01;;;;;;;58.02;31.30;;;;;;;-1.22;99.94;98837.97;1744222;80;20957;-78
2022/11/23 06:20:28;;;;;;;62.13;31.60;;;;;;;-1.21;99.92;98847.33;1736500;80;20987;-79
2022/11/23 06:22:57;;;;;;;;;;;;;;;-1.20;99.94;98851.60;1748213;81;21050;-81
2022/11/23 06:25:26;;;;;;;61.15;30.65;;;;;;;-1.18;99.94;98847.28;1708442;82;20107;-87
2022/11/23 06:28:00;;;;;;;57.77;31.17;;;;;;;-1.21;99.94;98849.89;1714904;82;21027;-80
2022/11/23 06:30:29;;;;;;;62.25;32.67;;;;;;;-1.19;99.97;98854.56;1720159;81;20986;-79
2022/11/23 06:32:56;;;;;;;58.48;32.23;;;;;;;-1.15;100.00;98862.64;1727959;81;20934;-80
2022/11/23 06:35:32;;;;;;;57.13;31.95;;;;;;;-1.08;100.00;98866.39;1752987;80;23775;-78
2022/11/23 06:37:57;;;;;;;57.93;31.97;;;;;;;-1.04;99.98;98860.34;1689916;81;20922;-79
2022/11/23 06:40:23;;;;;;;59.23;37.07;;;;;;;-1.01;99.86;98865.42;1714487;82;21075;-81
2022/11/23 06:42:52;;;;;;;56.30;33.30;;;;;;;-0.97;99.83;98860.68;1717338;81;20965;-77
2022/11/23 06:45:19;;;;;;;69.80;40.58;;;;;;;-0.93;99.77;98861.03;1724303;81;21434;-82
2022/11/23 06:47:45;;;;;;;64.80;38.95;;;;;;;-0.92;99.64;98856.34;1724180;82;21126;-78
2022/11/23 06:50:13;;;;;;;67.47;35.83;;;;;;;-0.94;99.61;98855.51;1724688;81;20879;-78
2022/11/23 06:52:39;;;;;;;;;;;;;;;-0.91;99.62;98858.02;1728583;82;20962;-81
2022/11/23 06:55:07;;;;;;;56.73;33.80;;;;;;;-0.88;99.68;98849.45;1731289;82;20494;-81
2022/11/23 06:57:34;;;;;;;57.53;30.43;;;;;;;-0.86;99.65;98858.80;1730727;81;20963;-78
2022/11/23 07:00:00;;;;;;;53.05;29.75;;;;;;;-0.82;99.58;98855.31;1726670;81;21984;-78
2022/11/23 07:02:27;;;;;;;56.67;31.87;;;;;;;-0.83;99.33;98849.79;1731810;81;21015;-78
2022/11/23 07:04:54;;;;;;;70.57;42.50;;;;;;;-0.83;99.33;98849.79;1729665;81;21836;-77
2022/11/23 07:07:21;;;;;;;67.60;37.93;;;;;;;-0.81;99.36;98853.19;1725225;82;21489;-77
2022/11/23 07:09:48;;;;;;;61.02;35.17;;;;;;;-0.79;99.44;98854.42;1732134;81;20980;-87
2022/11/23 07:12:14;;;;;;;53.30;28.70;;;;;;;-0.78;99.45;98858.26;1734908;82;21890;-86
2022/11/23 07:14:41;;;;;;;64.25;35.20;;;;;;;-0.80;99.44;98861.27;1723906;82;21801;-86
2022/11/23 07:17:07;;;;;;;69.47;35.57;;;;;;;-0.81;99.41;98851.90;1732215;81;20946;-86
2022/11/23 07:19:34;;;;;;;70.03;38.57;;;;;;;-0.81;99.50;98854.47;1726560;82;21044;-87
2022/11/23 07:22:01;;;;;;;68.10;35.75;;;;;;;-0.78;99.53;98856.98;1732635;82;21546;-86
2022/11/23 07:30:30;;;;;;;70.83;36.98;;;;;;;-0.79;99.61;98846.30;1683671;83;20961;-87
2022/11/23 07:33:35;;;;;;;;;;;;;;;;;;;;;
2022/11/23 07:36:08;;;;;;;69.65;35.73;;;;;;;-0.82;99.72;98860.44;1684846;84;21001;-87
2022/11/23 07:38:42;;;;;;;54.95;28.70;;;;;;;-0.79;99.76;98868.08;1693141;83;21838;-83
2022/11/23 07:41:09;;;;;;;61.65;38.40;;;;;;;-0.82;99.57;98865.56;1691871;82;20958;-84
2022/11/23 07:43:36;;;;;;;68.07;36.03;;;;;;;-0.80;99.71;98871.52;1691046;82;20923;-77
2022/11/23 07:46:03;;;;;;;61.37;31.48;;;;;;;-0.76;99.81;98867.19;1689855;82;21025;-85
2022/11/23 07:48:58;;;;;;;;;;;;;;;;;;;;;
2022/11/23 07:51:15;;;;;;;57.20;30.85;;;;;;;-0.69;99.78;98870.92;1686644;84;20930;-77
2022/11/23 07:53:41;;;;;;;61.63;33.53;;;;;;;-0.67;99.74;98864.51;1690367;82;20941;-79
2022/11/23 07:56:08;;;;;;;66.80;34.27;;;;;;;-0.63;99.72;98861.45;1694643;82;21586;-81
2022/11/23 07:58:35;;;;;;;50.20;30.10;;;;;;;-0.63;99.72;98867.86;1686838;82;21036;-82
2022/11/23 08:01:01;;;;;;;59.83;33.25;;;;;;;-0.60;99.74;98866.09;1696220;83;20958;-85
2022/11/23 08:03:28;;;;;;;63.55;34.25;;;;;;;-0.56;99.78;98865.59;1694685;82;21134;-90
2022/11/23 08:05:58;;;;;;;62.35;31.15;;;;;;;-0.53;99.75;98865.13;1694115;82;26759;-88
2022/11/23 08:08:25;;;;;;;56.37;31.33;;;;;;;-0.51;99.58;98867.66;1688954;82;20962;-89
2022/11/23 08:10:53;;;;;;;54.95;31.35;;;;;;;-0.54;99.52;98865.14;1689503;83;20896;-84
2022/11/23 08:13:21;;;;;;;67.62;37.78;;;;;;;-0.59;99.50;98872.05;1691022;84;21071;-82
2022/11/23 08:15:47;;;;;;;;;;;;;;;-0.56;99.46;98882.26;1688758;84;21280;-80
2022/11/23 08:18:14;;;;;;;74.55;39.35;;;;;;;-0.50;99.37;98870.65;1713177;82;20154;-79
2022/11/23 08:20:44;;;;;;;68.83;34.58;;;;;;;-0.46;99.39;98877.41;1691321;84;20942;-78
2022/11/23 08:23:11;;;;;;;61.92;31.12;;;;;;;-0.48;99.35;98884.27;1689908;82;20962;-84
2022/11/23 08:25:37;;;;;;;66.63;35.30;;;;;;;-0.43;99.37;98885.48;1690263;82;20978;-87
2022/11/23 08:28:04;;;;;;;57.30;32.20;;;;;;;-0.46;99.11;98883.82;1684915;82;21527;-80
2022/11/23 08:30:33;;;;;;;77.30;45.58;;;;;;;-0.48;99.05;98894.53;1691332;82;21352;-84
2022/11/23 08:33:07;;;;;;;76.62;47.67;;;;;;;-0.54;99.23;98899.76;1690350;82;20904;-91
2022/11/23 08:35:35;;;;;;;73.28;39.25;;;;;;;-0.53;99.25;98887.37;1692027;83;21504;-82
2022/11/23 08:38:03;;;;;;;62.08;35.23;;;;;;;-0.41;99.04;98888.88;1666430;82;21535;-84
2022/11/23 08:40:30;;;;;;;63.23;34.45;;;;;;;-0.37;98.94;98881.09;1686396;84;21558;-87
2022/11/23 08:42:57;;;;;;;61.80;37.88;;;;;;;-0.35;98.93;98884.48;1692155;82;20968;-87
2022/11/23 08:45:29;;;;;;;64.80;36.63;;;;;;;-0.38;99.01;98879.41;1688599;84;21936;-84
2022/11/23 08:48:00;;;;;;;62.03;34.43;;;;;;;-0.38;99.05;98879.41;1692820;84;21681;-90
2022/11/23 08:50:28;;;;;;;64.00;36.38;;;;;;;-0.37;99.14;98873.40;1694918;83;20973;-85
2022/11/23 08:52:56;;;;;;;57.58;34.27;;;;;;;-0.32;99.23;98880.59;1662453;84;21064;-84
2022/11/23 08:55:25;;;;;;;62.95;33.28;;;;;;;-0.31;99.13;98881.02;1683761;82;20994;-86
2022/11/23 08:57:57;;;;;;;56.77;31.17;;;;;;;-0.29;99.14;98886.95;1695209;82;20954;-86
2022/11/23 09:00:25;;;;;;;55.03;29.98;;;;;;;-0.25;99.13;98881.35;1689389;84;21042;-83
2022/11/23 09:02:52;;;;;;;58.78;31.93;;;;;;;-0.20;99.09;98885.10;1689521;84;21103;-82
2022/11/23 09:05:19;;;;;;;61.37;32.33;;;;;;;-0.25;99.00;98878.34;1690800;84;21069;-89
2022/11/23 09:07:47;;;;;;;58.90;32.58;;;;;;;-0.25;99.02;98882.19;1732785;81;21014;-87
2022/11/23 09:10:14;;;;;;;66.42;34.25;;;;;;;-0.28;98.99;98875.83;1761126;80;20870;-85
2022/11/23 09:12:40;;;;;;;58.00;32.63;;;;;;;-0.21;99.23;98879.57;1759569;79;20874;-76
2022/11/23 09:15:08;;;;;;;65.50;36.53;;;;;;;-0.17;99.19;98879.47;1742959;79;20965;-86
2022/11/23 09:17:36;;;;;;;58.95;33.85;;;;;;;-0.18;99.13;98884.20;1756195;79;21088;-85
2022/11/23 09:20:03;;;;;;;62.75;34.00;;;;;;;-0.09;99.30;98887.05;1756725;80;20959;-81
2022/11/23 09:22:30;;;;;;;58.90;32.98;;;;;;;-0.03;99.22;98890.78;1756798;79;21501;-86
2022/11/23 09:24:57;;;;;;;63.80;31.70;;;;;;;0.04;99.14;98892.38;1778416;78;20982;-87
2022/11/23 09:27:24;;;;;;;65.23;33.43;;;;;;;0.10;99.20;98881.99;1757722;80;20942;-88
2022/11/23 09:29:51;;;;;;;62.73;32.83;;;;;;;0.14;98.99;98887.91;1727456;80;21178;-79
2022/11/23 09:32:17;;;;;;;68.15;35.38;;;;;;;0.17;98.99;98887.44;1747943;80;20949;-91
2022/11/23 09:34:44;;;;;;;72.62;37.65;;;;;;;0.21;99.01;98879.23;1743794;80;21475;-84
2022/11/23 09:37:12;;;;;;;65.90;35.65;;;;;;;0.26;99.07;98891.99;1751359;80;21534;-83
2022/11/23 09:39:39;;;;;;;60.38;31.33;;;;;;;0.27;98.87;98888.54;1744552;80;20938;-88
2022/11/23 09:42:51;;;;;;;60.90;30.27;;;;;;;0.27;98.76;98890.66;1750155;80;21440;-84
2022/11/23 09:45:29;;;;;;;57.70;30.32;;;;;;;0.26;98.72;98886.86;1721631;81;20963;-77
2022/11/23 09:48:13;;;;;;;57.48;30.95;;;;;;;0.32;98.89;98886.73;1752989;80;20964;-83
2022/11/23 09:50:51;;;;;;;64.80;32.78;;;;;;;0.37;98.87;98888.78;1763971;79;20925;-74
2022/11/23 09:53:22;;;;;;;62.40;32.65;;;;;;;0.40;98.73;98892.12;1748471;81;21941;-76
2022/11/23 09:55:52;;;;;;;60.05;31.02;;;;;;;0.43;98.71;98893.80;1764476;79;21072;-85
2022/11/23 09:58:24;;;;;;;372.58;68.20;;;;;;;0.47;98.73;98889.44;1762097;80;21016;-85
2022/11/23 10:01:01;;;;;;;376.25;63.15;;;;;;;0.56;99.50;98890.53;1765100;79;20993;-73
2022/11/23 10:03:32;;;;;;;84.55;35.15;;;;;;;0.84;100.00;98892.09;1766438;79;20957;-71
2022/11/23 10:06:25;;;;;;;64.65;31.37;;;;;;;0.92;99.63;98891.48;1762150;80;20947;-72
2022/11/23 10:09:18;;;;;;;69.30;32.08;;;;;;;0.81;98.73;98890.88;1765865;79;21022;-70
2022/11/23 10:12:18;;;;;;;88.37;33.30;;;;;;;0.80;98.77;98889.19;1751858;80;21446;-72
2022/11/23 10:15:03;;;;;;;100.35;48.13;;;;;;;0.80;98.66;98884.89;1766085;80;20912;-73
2022/11/23 10:17:57;;;;;;;84.35;47.78;;;;;;;0.85;98.93;98884.80;1668911;84;20980;-72
2022/11/23 10:20:50;;;;;;;72.82;40.63;;;;;;;0.91;98.69;98884.67;1672651;84;20961;-74
2022/11/23 10:23:37;;;;;;;268.90;62.38;;;;;;;0.91;98.74;98888.52;1678817;84;21190;-73
2022/11/23 10:26:08;;;;;;;80.70;37.53;;;;;;;0.97;98.63;98881.96;1677619;84;21539;-74
2022/11/23 10:28:35;;;;;;;199.25;55.75;;;;;;;1.05;98.75;98877.50;1684619;83;21108;-73
2022/11/23 10:31:07;;;;;;;72.03;37.78;;;;;;;1.01;98.41;98875.89;1687985;83;20921;-73
2022/11/23 10:33:56;;;;;;;191.75;49.73;;;;;;;0.96;98.17;98875.14;1658760;85;20977;-72
2022/11/23 10:36:23;;;;;;;118.02;44.88;;;;;;;0.96;98.44;98875.14;1685570;83;21134;-72
2022/11/23 10:38:55;;;;;;;108.05;39.42;;;;;;;1.06;98.82;98870.63;1679392;84;20986;-73
2022/11/23 10:41:22;;;;;;;78.87;37.20;;;;;;;1.08;98.47;98876.14;1686741;83;20989;-71
2022/11/23 10:44:03;;;;;;;77.15;40.73;;;;;;;1.05;98.36;98877.50;1681257;83;20977;-73
2022/11/23 10:46:38;;;;;;;82.02;36.53;;;;;;;0.98;98.15;98878.53;1684407;83;21040;-72
2022/11/23 10:49:28;;;;;;;119.55;44.80;;;;;;;0.96;98.26;98876.42;1692452;83;22109;-71
2022/11/23 10:52:07;;;;;;;331.68;62.93;;;;;;;1.09;99.09;98873.99;1662853;84;21985;-72
2022/11/23 10:54:53;;;;;;;751.75;130.37;;;;;;;1.10;99.04;98870.53;1702606;81;20959;-73
2022/11/23 10:57:32;;;;;;;203.12;53.00;;;;;;;1.40;100.00;98876.27;1756357;80;20958;-74
2022/11/23 11:00:06;;;;;;;140.37;39.65;;;;;;;1.53;99.45;98863.09;1704517;81;99938;-70
2022/11/23 11:02:45;;;;;;;392.50;85.00;;;;;;;1.51;99.23;98855.87;1678278;83;21204;-72
2022/11/23 11:05:36;;;;;;;189.55;47.13;;;;;;;1.65;99.48;98854.66;1684149;83;21565;-72
2022/11/23 11:08:16;;;;;;;174.07;44.93;;;;;;;1.65;98.92;98846.94;1682806;83;21495;-70
2022/11/23 11:10:50;;;;;;;60.58;28.95;;;;;;;1.74;99.25;98852.72;1683077;83;20958;-71
2022/11/23 11:13:43;;;;;;;52.50;28.23;;;;;;;1.72;98.24;98848.48;1657957;85;20892;-73
2022/11/23 11:16:21;;;;;;;72.90;32.90;;;;;;;1.65;97.70;98853.38;1604733;88;21692;-73
2022/11/23 11:18:48;;;;;;;49.53;27.45;;;;;;;1.63;97.63;98851.30;1600492;88;20970;-73
2022/11/23 11:21:22;;;;;;;44.98;25.40;;;;;;;1.56;97.35;98857.86;1603758;88;21684;-73
2022/11/23 11:24:04;;;;;;;136.15;36.60;;;;;;;1.50;97.27;98851.59;1601458;88;21077;-73
2022/11/23 11:26:34;;;;;;;60.00;27.62;;;;;;;1.50;97.55;98852.88;1581827;89;20917;-73
2022/11/23 11:29:08;;;;;;;83.42;44.73;;;;;;;1.52;97.66;98854.98;1635865;85;21336;-73
2022/11/23 11:31:51;;;;;;;84.28;43.17;;;;;;;1.51;97.39;98846.86;1645293;85;21009;-73
2022/11/23 11:34:38;;;;;;;51.83;27.98;;;;;;;1.45;97.29;98849.56;1648759;85;21467;-72
2022/11/23 11:37:43;;;;;;;109.67;33.98;;;;;;;1.39;97.14;98842.00;1646230;85;20937;-72
2022/11/23 11:40:32;;;;;;;178.72;46.92;;;;;;;1.31;96.64;98845.19;1648766;85;21549;-72
2022/11/23 11:43:10;;;;;;;136.90;37.28;;;;;;;1.24;97.25;98844.95;1649175;85;21053;-72